Time;durP1;ratioP1;P1;durP2;ratioP2;P2;SDS_P1;SDS_P2;PMS_P1;PMS_P2;Temp;Humidity;BMP_temperature;BMP_pressure;BME280_temperature;BME280_humidity;BME280_pressure;Samples;Min_cycle;Max_cycle;Signal;HPM_P1;HPM_P2
2023/08/26 00:01:52;;;;;;;0.00;0.00;;;;;;;;;;5006386;28;20248;-82
2023/08/26 00:04:18;;;;;;;0.13;0.10;;;;;;;;;;5022704;28;20037;-82
2023/08/26 00:06:44;;;;;;;0.08;0.00;;;;;;;;;;5055645;28;20043;-82
2023/08/26 00:09:11;;;;;;;0.25;0.00;;;;;;;;;;5041491;28;20040;-82
2023/08/26 00:11:37;;;;;;;0.03;0.00;;;;;;;;;;5058383;28;20500;-81
2023/08/26 00:14:06;;;;;;;0.15;0.00;;;;;;;;;;5042410;28;20033;-82
2023/08/26 00:16:32;;;;;;;0.25;0.00;;;;;;;;;;5058082;28;20048;-82
2023/08/26 00:19:02;;;;;;;0.00;0.00;;;;;;;;;;5025786;28;20040;-82
2023/08/26 00:21:28;;;;;;;0.10;0.00;;;;;;;;;;5058720;28;20045;-82
2023/08/26 00:23:55;;;;;;;0.03;0.00;;;;;;;;;;5058492;28;20127;-82
2023/08/26 00:26:22;;;;;;;0.00;0.00;;;;;;;;;;5041933;28;20040;-82
2023/08/26 00:28:48;;;;;;;0.85;0.10;;;;;;;;;;5058456;28;20086;-82
2023/08/26 00:31:14;;;;;;;0.00;0.00;;;;;;;;;;5057904;28;20078;-82
2023/08/26 00:33:40;;;;;;;0.00;0.00;;;;;;;;;;5042001;28;20048;-81
2023/08/26 00:36:06;;;;;;;0.32;0.10;;;;;;;;;;5058597;28;20037;-82
2023/08/26 00:38:32;;;;;;;0.00;0.00;;;;;;;;;;5041840;28;20376;-82
2023/08/26 00:40:58;;;;;;;4.38;0.13;;;;;;;;;;5058099;28;20032;-82
2023/08/26 00:43:30;;;;;;;0.10;0.10;;;;;;;;;;5057327;28;20139;-82
2023/08/26 00:45:56;;;;;;;0.00;0.00;;;;;;;;;;5058002;28;20474;-82
2023/08/26 00:48:22;;;;;;;0.13;0.10;;;;;;;;;;5057728;28;20044;-82
2023/08/26 00:50:49;;;;;;;0.00;0.00;;;;;;;;;;5057929;28;20127;-82
2023/08/26 00:53:16;;;;;;;0.00;0.00;;;;;;;;;;5041540;28;20496;-82
2023/08/26 00:55:43;;;;;;;0.00;0.00;;;;;;;;;;5041367;28;20051;-82
2023/08/26 00:58:10;;;;;;;0.00;0.00;;;;;;;;;;5057803;28;20090;-82
2023/08/26 01:00:36;;;;;;;0.00;0.00;;;;;;;;;;5041031;28;20087;-82
2023/08/26 01:03:08;;;;;;;0.30;0.08;;;;;;;;;;5041397;28;20058;-82
2023/08/26 01:05:35;;;;;;;0.00;0.00;;;;;;;;;;5041258;28;20048;-82
2023/08/26 01:08:02;;;;;;;0.00;0.00;;;;;;;;;;5057590;28;20391;-82
2023/08/26 01:10:47;;;;;;;0.00;0.00;;;;;;;;;;5057378;28;20043;-82
2023/08/26 01:13:16;;;;;;;0.03;0.03;;;;;;;;;;5057443;28;20435;-82
2023/08/26 01:15:47;;;;;;;0.00;0.00;;;;;;;;;;5040803;28;20048;-82
2023/08/26 01:18:14;;;;;;;0.00;0.00;;;;;;;;;;5056572;28;20074;-82
2023/08/26 01:20:41;;;;;;;0.00;0.00;;;;;;;;;;5057606;28;20040;-82
2023/08/26 01:23:08;;;;;;;0.00;0.00;;;;;;;;;;5040851;28;20079;-82
2023/08/26 01:25:34;;;;;;;1.08;0.22;;;;;;;;;;5057095;28;20044;-82
2023/08/26 01:28:00;;;;;;;0.00;0.00;;;;;;;;;;5057573;28;20038;-82
2023/08/26 01:30:28;;;;;;;0.00;0.00;;;;;;;;;;5057429;28;20047;-82
2023/08/26 01:32:54;;;;;;;0.00;0.00;;;;;;;;;;5057578;28;20044;-82
2023/08/26 01:35:26;;;;;;;0.22;0.22;;;;;;;;;;5057124;28;20043;-82
2023/08/26 01:37:52;;;;;;;0.00;0.00;;;;;;;;;;5057310;28;20123;-82
2023/08/26 01:40:19;;;;;;;0.00;0.00;;;;;;;;;;5040492;28;20036;-82
2023/08/26 01:42:46;;;;;;;0.17;0.08;;;;;;;;;;5057344;28;20048;-82
2023/08/26 01:45:12;;;;;;;0.00;0.00;;;;;;;;;;5056766;28;20545;-82
2023/08/26 01:47:39;;;;;;;0.00;0.00;;;;;;;;;;5023575;28;20041;-82
2023/08/26 01:50:05;;;;;;;0.00;0.00;;;;;;;;;;5056772;28;20083;-82
2023/08/26 01:52:31;;;;;;;0.00;0.00;;;;;;;;;;5023792;28;20052;-82
2023/08/26 01:54:57;;;;;;;0.00;0.00;;;;;;;;;;5056869;28;20080;-82
2023/08/26 01:57:23;;;;;;;0.00;0.00;;;;;;;;;;5057074;28;20042;-82
2023/08/26 01:59:49;;;;;;;0.00;0.00;;;;;;;;;;5056828;28;20098;-82
2023/08/26 02:02:15;;;;;;;0.00;0.00;;;;;;;;;;5023876;28;20118;-81
2023/08/26 02:04:41;;;;;;;0.47;0.35;;;;;;;;;;5057042;28;20430;-81
2023/08/26 02:07:07;;;;;;;0.00;0.00;;;;;;;;;;5056699;28;20044;-82
2023/08/26 02:09:33;;;;;;;0.10;0.10;;;;;;;;;;5056623;28;20036;-82
2023/08/26 02:12:00;;;;;;;0.10;0.10;;;;;;;;;;5056490;28;20076;-82
2023/08/26 02:14:26;;;;;;;0.00;0.00;;;;;;;;;;5023743;28;20041;-82
2023/08/26 02:16:52;;;;;;;0.15;0.00;;;;;;;;;;5055793;28;20049;-82
2023/08/26 02:19:18;;;;;;;0.00;0.00;;;;;;;;;;5039936;28;20396;-82
2023/08/26 02:21:45;;;;;;;0.00;0.00;;;;;;;;;;5056349;28;20048;-82
2023/08/26 02:24:11;;;;;;;0.00;0.00;;;;;;;;;;5039947;28;20483;-82
2023/08/26 02:26:37;;;;;;;0.00;0.00;;;;;;;;;;5039903;28;20178;-82
2023/08/26 02:29:04;;;;;;;0.00;0.00;;;;;;;;;;5056184;28;20036;-82
2023/08/26 02:31:30;;;;;;;0.00;0.00;;;;;;;;;;5056378;28;20044;-81
2023/08/26 02:33:56;;;;;;;0.00;0.00;;;;;;;;;;5039696;28;20048;-82
2023/08/26 02:36:22;;;;;;;0.00;0.00;;;;;;;;;;5056085;28;20044;-82
2023/08/26 02:38:48;;;;;;;0.00;0.00;;;;;;;;;;5039723;28;20044;-82
2023/08/26 02:41:14;;;;;;;0.00;0.00;;;;;;;;;;5039640;28;20048;-81
2023/08/26 02:43:40;;;;;;;0.00;0.00;;;;;;;;;;5055816;28;20042;-82
2023/08/26 02:46:06;;;;;;;0.00;0.00;;;;;;;;;;5039392;28;20049;-82
2023/08/26 02:48:33;;;;;;;0.00;0.00;;;;;;;;;;5038879;28;20048;-82
2023/08/26 02:51:00;;;;;;;0.00;0.00;;;;;;;;;;5055353;28;20048;-82
2023/08/26 02:53:27;;;;;;;0.75;0.10;;;;;;;;;;5039580;28;20047;-82
2023/08/26 02:55:53;;;;;;;0.00;0.00;;;;;;;;;;5056151;28;20048;-81
2023/08/26 02:58:19;;;;;;;0.00;0.00;;;;;;;;;;5056370;28;20373;-81
2023/08/26 03:00:46;;;;;;;0.00;0.00;;;;;;;;;;5056101;28;20045;-83
2023/08/26 03:03:12;;;;;;;0.60;0.35;;;;;;;;;;5055814;28;20048;-82
2023/08/26 03:05:38;;;;;;;0.00;0.00;;;;;;;;;;5038439;28;20473;-81
2023/08/26 03:08:04;;;;;;;0.00;0.00;;;;;;;;;;5056033;28;20129;-82
2023/08/26 03:10:31;;;;;;;0.00;0.00;;;;;;;;;;5047450;28;20464;-81
2023/08/26 03:12:57;;;;;;;0.28;0.00;;;;;;;;;;5035821;28;20366;-82
2023/08/26 03:15:23;;;;;;;0.30;0.05;;;;;;;;;;5003157;28;20044;-82
2023/08/26 03:17:49;;;;;;;0.00;0.00;;;;;;;;;;5031564;28;20093;-82
2023/08/26 03:20:15;;;;;;;0.00;0.00;;;;;;;;;;4999424;28;20053;-82
2023/08/26 03:22:41;;;;;;;0.00;0.00;;;;;;;;;;5016259;28;20445;-82
2023/08/26 03:25:08;;;;;;;0.00;0.00;;;;;;;;;;5016079;28;20049;-82
2023/08/26 03:27:34;;;;;;;0.00;0.00;;;;;;;;;;5032724;28;20128;-82
2023/08/26 03:30:00;;;;;;;0.00;0.00;;;;;;;;;;5032215;28;20044;-82
2023/08/26 03:32:26;;;;;;;0.10;0.10;;;;;;;;;;5016268;28;20045;-82
2023/08/26 03:34:53;;;;;;;0.00;0.00;;;;;;;;;;5032031;28;20060;-82
2023/08/26 03:37:19;;;;;;;0.00;0.00;;;;;;;;;;5032494;28;20107;-82
2023/08/26 03:39:45;;;;;;;0.00;0.00;;;;;;;;;;4999848;28;20041;-82
2023/08/26 03:42:11;;;;;;;0.10;0.00;;;;;;;;;;5032264;28;20132;-82
2023/08/26 03:44:37;;;;;;;0.00;0.00;;;;;;;;;;5015862;28;20042;-82
2023/08/26 03:47:03;;;;;;;0.00;0.00;;;;;;;;;;5015535;28;20041;-82
2023/08/26 03:49:30;;;;;;;0.00;0.00;;;;;;;;;;4999276;28;20044;-82
2023/08/26 03:51:56;;;;;;;0.00;0.00;;;;;;;;;;5032124;28;20144;-83
2023/08/26 03:54:22;;;;;;;0.00;0.00;;;;;;;;;;5032303;28;20045;-82
2023/08/26 03:56:48;;;;;;;0.00;0.00;;;;;;;;;;5016330;28;20048;-82
2023/08/26 03:59:14;;;;;;;1.20;0.10;;;;;;;;;;5015770;28;20056;-82
2023/08/26 04:01:41;;;;;;;0.00;0.00;;;;;;;;;;5031767;28;20080;-82
2023/08/26 04:04:07;;;;;;;0.00;0.00;;;;;;;;;;5031998;28;20046;-82
2023/08/26 04:06:33;;;;;;;0.00;0.00;;;;;;;;;;5031364;28;20041;-83
2023/08/26 04:09:02;;;;;;;0.00;0.00;;;;;;;;;;5031146;28;20041;-83
2023/08/26 04:11:28;;;;;;;0.00;0.00;;;;;;;;;;5031144;28;20092;-82
2023/08/26 04:13:54;;;;;;;0.00;0.00;;;;;;;;;;5032260;28;20044;-82
2023/08/26 04:16:21;;;;;;;0.03;0.00;;;;;;;;;;5031902;28;20039;-82
2023/08/26 04:18:52;;;;;;;0.00;0.00;;;;;;;;;;4998018;28;20078;-82
2023/08/26 04:21:18;;;;;;;0.00;0.00;;;;;;;;;;5015283;28;20392;-83
2023/08/26 04:23:45;;;;;;;0.00;0.00;;;;;;;;;;5015039;28;20046;-83
2023/08/26 04:26:11;;;;;;;0.03;0.03;;;;;;;;;;5015092;28;20046;-83
2023/08/26 04:28:37;;;;;;;0.00;0.00;;;;;;;;;;5015263;28;20172;-83
2023/08/26 04:31:03;;;;;;;0.30;0.00;;;;;;;;;;4998846;28;20041;-82
2023/08/26 04:33:29;;;;;;;0.00;0.00;;;;;;;;;;4999103;28;20494;-83
2023/08/26 04:35:55;;;;;;;0.00;0.00;;;;;;;;;;5015332;28;20050;-83
2023/08/26 04:38:21;;;;;;;0.00;0.00;;;;;;;;;;5015369;28;20046;-83
2023/08/26 04:40:47;;;;;;;0.00;0.00;;;;;;;;;;5015284;28;20050;-83
2023/08/26 04:43:13;;;;;;;0.00;0.00;;;;;;;;;;5015070;28;20037;-84
2023/08/26 04:45:40;;;;;;;0.00;0.00;;;;;;;;;;4998720;28;20545;-83
2023/08/26 04:48:07;;;;;;;0.00;0.00;;;;;;;;;;5014785;28;20042;-83
2023/08/26 04:50:33;;;;;;;0.10;0.00;;;;;;;;;;4998507;28;20037;-83
2023/08/26 04:53:00;;;;;;;0.10;0.00;;;;;;;;;;5014945;28;20478;-83
2023/08/26 04:55:26;;;;;;;0.00;0.00;;;;;;;;;;5014604;28;20466;-83
2023/08/26 04:57:52;;;;;;;0.00;0.00;;;;;;;;;;5015028;28;20426;-83
2023/08/26 05:00:19;;;;;;;0.30;0.00;;;;;;;;;;5014603;28;20049;-83
2023/08/26 05:02:45;;;;;;;0.00;0.00;;;;;;;;;;4998575;28;20080;-83
2023/08/26 05:05:11;;;;;;;0.00;0.00;;;;;;;;;;5014858;28;20046;-82
2023/08/26 05:07:37;;;;;;;0.17;0.00;;;;;;;;;;4998379;28;20041;-82
2023/08/26 05:10:04;;;;;;;0.00;0.00;;;;;;;;;;4998274;28;20037;-83
2023/08/26 05:12:30;;;;;;;0.10;0.05;;;;;;;;;;5014657;28;20041;-83
2023/08/26 05:14:56;;;;;;;0.30;0.20;;;;;;;;;;4998152;28;20045;-83
2023/08/26 05:17:22;;;;;;;0.13;0.08;;;;;;;;;;5021954;28;20515;-83
2023/08/26 05:19:48;;;;;;;0.10;0.00;;;;;;;;;;5034228;28;20393;-82
2023/08/26 05:22:14;;;;;;;0.60;0.00;;;;;;;;;;5034184;28;20045;-82
2023/08/26 05:24:40;;;;;;;0.00;0.00;;;;;;;;;;5034052;28;20041;-82
2023/08/26 05:27:07;;;;;;;0.00;0.00;;;;;;;;;;5034380;28;20389;-83
2023/08/26 05:29:33;;;;;;;0.47;0.10;;;;;;;;;;5033710;28;20046;-82
2023/08/26 05:31:59;;;;;;;0.00;0.00;;;;;;;;;;5033994;28;20045;-82
2023/08/26 05:34:25;;;;;;;0.28;0.10;;;;;;;;;;5035173;28;20041;-82
2023/08/26 05:36:52;;;;;;;0.45;0.28;;;;;;;;;;5034155;28;20049;-82
2023/08/26 05:39:18;;;;;;;0.10;0.00;;;;;;;;;;5017453;28;20049;-82
2023/08/26 05:41:44;;;;;;;0.00;0.00;;;;;;;;;;5034082;28;20132;-82
2023/08/26 05:44:10;;;;;;;0.25;0.20;;;;;;;;;;5033452;28;20096;-82
2023/08/26 05:46:36;;;;;;;0.00;0.00;;;;;;;;;;5033450;28;20045;-83
2023/08/26 05:49:02;;;;;;;0.00;0.00;;;;;;;;;;5033884;28;20053;-82
2023/08/26 05:51:28;;;;;;;0.10;0.00;;;;;;;;;;5033984;28;20432;-82
2023/08/26 05:53:54;;;;;;;0.00;0.00;;;;;;;;;;5033636;28;20078;-83
2023/08/26 05:56:20;;;;;;;0.20;0.15;;;;;;;;;;5033679;28;20394;-82
2023/08/26 05:58:48;;;;;;;0.00;0.00;;;;;;;;;;5033497;28;20052;-81
2023/08/26 06:01:14;;;;;;;0.40;0.15;;;;;;;;;;5033207;28;20041;-81
2023/08/26 06:03:40;;;;;;;0.98;0.32;;;;;;;;;;5033523;28;20044;-80
2023/08/26 06:06:06;;;;;;;0.22;0.20;;;;;;;;;;5033619;28;20044;-81
2023/08/26 06:08:32;;;;;;;0.00;0.00;;;;;;;;;;5033404;28;20041;-81
2023/08/26 06:10:58;;;;;;;0.25;0.17;;;;;;;;;;5033328;28;20052;-81
2023/08/26 06:13:24;;;;;;;0.00;0.00;;;;;;;;;;5034054;28;20052;-81
2023/08/26 06:15:57;;;;;;;0.00;0.00;;;;;;;;;;5033405;28;20543;-81
2023/08/26 06:18:23;;;;;;;0.00;0.00;;;;;;;;;;5033838;28;20063;-82
2023/08/26 06:20:50;;;;;;;0.00;0.00;;;;;;;;;;5036135;28;20144;-80
2023/08/26 06:23:17;;;;;;;0.63;0.00;;;;;;;;;;5036451;28;20057;-81
2023/08/26 06:25:56;;;;;;;0.17;0.08;;;;;;;;;;5036190;28;20431;-81
2023/08/26 06:28:23;;;;;;;0.00;0.00;;;;;;;;;;5019999;28;20049;-81
2023/08/26 06:30:49;;;;;;;0.00;0.00;;;;;;;;;;5019801;28;20037;-81
2023/08/26 06:33:15;;;;;;;0.65;0.00;;;;;;;;;;5036510;28;20481;-81
2023/08/26 06:35:41;;;;;;;0.00;0.00;;;;;;;;;;5019754;28;20052;-81
2023/08/26 06:38:08;;;;;;;0.10;0.10;;;;;;;;;;5019686;28;20052;-82
2023/08/26 06:40:34;;;;;;;0.93;0.20;;;;;;;;;;5019065;28;20037;-82
2023/08/26 06:43:03;;;;;;;0.60;0.35;;;;;;;;;;5036640;28;20053;-81
2023/08/26 06:45:30;;;;;;;0.08;0.00;;;;;;;;;;5036153;28;20033;-81
2023/08/26 06:47:57;;;;;;;0.15;0.03;;;;;;;;;;5035446;28;20040;-81
2023/08/26 06:50:23;;;;;;;2.45;0.40;;;;;;;;;;5035646;28;20469;-82
2023/08/26 06:52:50;;;;;;;0.00;0.00;;;;;;;;;;5035845;28;20045;-82
2023/08/26 06:55:17;;;;;;;0.10;0.10;;;;;;;;;;5035902;28;20488;-82
2023/08/26 06:57:43;;;;;;;0.38;0.10;;;;;;;;;;5019830;28;20485;-81
2023/08/26 07:00:09;;;;;;;0.20;0.10;;;;;;;;;;5036035;28;20140;-81
2023/08/26 07:02:36;;;;;;;0.00;0.00;;;;;;;;;;5035886;28;20037;-82
2023/08/26 07:05:02;;;;;;;0.00;0.00;;;;;;;;;;5035733;28;20523;-81
2023/08/26 07:07:28;;;;;;;0.10;0.10;;;;;;;;;;5035658;28;20044;-81
2023/08/26 07:09:54;;;;;;;0.10;0.00;;;;;;;;;;5019354;28;20465;-82
2023/08/26 07:12:21;;;;;;;0.50;0.10;;;;;;;;;;5019884;28;20044;-81
2023/08/26 07:14:47;;;;;;;0.20;0.10;;;;;;;;;;5035646;28;20044;-81
2023/08/26 07:17:17;;;;;;;0.10;0.10;;;;;;;;;;5035101;28;20099;-82
2023/08/26 07:19:44;;;;;;;0.10;0.10;;;;;;;;;;5019326;28;20049;-81
2023/08/26 07:22:10;;;;;;;0.70;0.08;;;;;;;;;;5035627;28;20072;-82
2023/08/26 07:24:37;;;;;;;0.08;0.00;;;;;;;;;;5035901;28;20045;-82
2023/08/26 07:27:03;;;;;;;0.05;0.00;;;;;;;;;;5019140;28;20139;-82
2023/08/26 07:29:31;;;;;;;0.00;0.00;;;;;;;;;;5019248;28;20037;-82
2023/08/26 07:31:57;;;;;;;11.30;0.88;;;;;;;;;;5035733;28;20067;-82
2023/08/26 07:34:24;;;;;;;0.17;0.17;;;;;;;;;;5019317;28;20044;-81
2023/08/26 07:36:50;;;;;;;1.30;0.63;;;;;;;;;;4998982;28;20136;-82
2023/08/26 07:39:16;;;;;;;0.57;0.10;;;;;;;;;;5015888;28;20056;-82
2023/08/26 07:41:42;;;;;;;0.20;0.10;;;;;;;;;;4983960;28;20115;-82
2023/08/26 07:44:08;;;;;;;0.52;0.10;;;;;;;;;;5015986;28;20049;-82
2023/08/26 07:46:34;;;;;;;1.15;0.22;;;;;;;;;;5015753;28;20045;-82
2023/08/26 07:49:00;;;;;;;0.70;0.35;;;;;;;;;;5015267;28;20049;-82
2023/08/26 07:51:26;;;;;;;0.00;0.00;;;;;;;;;;5016138;28;20064;-82
2023/08/26 07:53:52;;;;;;;0.00;0.00;;;;;;;;;;4987184;28;20491;-82
2023/08/26 07:56:19;;;;;;;0.10;0.08;;;;;;;;;;5020078;28;20049;-82
2023/08/26 07:58:45;;;;;;;0.00;0.00;;;;;;;;;;5038463;28;20037;-82
2023/08/26 08:01:11;;;;;;;0.00;0.00;;;;;;;;;;5038568;28;20076;-82
2023/08/26 08:03:37;;;;;;;0.13;0.08;;;;;;;;;;5038379;28;20040;-82
2023/08/26 08:06:03;;;;;;;0.43;0.30;;;;;;;;;;5022020;28;20396;-82
2023/08/26 08:08:29;;;;;;;0.10;0.00;;;;;;;;;;5020232;28;20123;-82
2023/08/26 08:10:55;;;;;;;0.10;0.00;;;;;;;;;;5023227;28;20063;-82
2023/08/26 08:13:21;;;;;;;1.08;0.20;;;;;;;;;;5035822;28;20099;-82
2023/08/26 08:15:47;;;;;;;0.90;0.20;;;;;;;;;;5040709;28;20057;-81
2023/08/26 08:18:13;;;;;;;0.08;0.00;;;;;;;;;;5037733;28;20037;-81
2023/08/26 08:20:39;;;;;;;0.00;0.00;;;;;;;;;;5021330;28;20051;-81
2023/08/26 08:23:05;;;;;;;0.00;0.00;;;;;;;;;;5021457;28;20515;-81
2023/08/26 08:25:32;;;;;;;0.32;0.20;;;;;;;;;;5038185;28;20083;-81
2023/08/26 08:27:58;;;;;;;0.00;0.00;;;;;;;;;;5038942;28;20037;-81
2023/08/26 08:30:24;;;;;;;0.00;0.00;;;;;;;;;;5021290;28;20098;-81
2023/08/26 08:32:50;;;;;;;0.00;0.00;;;;;;;;;;5021574;28;20045;-81
2023/08/26 08:35:16;;;;;;;0.00;0.00;;;;;;;;;;5021328;28;20048;-82
2023/08/26 08:37:42;;;;;;;0.08;0.00;;;;;;;;;;5036884;28;20435;-81
2023/08/26 08:40:09;;;;;;;0.00;0.00;;;;;;;;;;5037944;28;20041;-80
2023/08/26 08:42:35;;;;;;;0.10;0.00;;;;;;;;;;5037695;28;20036;-82
2023/08/26 08:45:03;;;;;;;0.10;0.10;;;;;;;;;;5037761;28;20041;-80
2023/08/26 08:47:30;;;;;;;0.00;0.00;;;;;;;;;;5037519;28;20115;-80
2023/08/26 08:49:57;;;;;;;0.40;0.10;;;;;;;;;;5037663;28;20041;-80
2023/08/26 08:52:24;;;;;;;0.28;0.20;;;;;;;;;;5038519;28;20427;-80
2023/08/26 08:54:50;;;;;;;0.10;0.10;;;;;;;;;;5037492;28;20037;-81
2023/08/26 08:57:19;;;;;;;0.00;0.00;;;;;;;;;;5021752;28;20041;-80
2023/08/26 08:59:46;;;;;;;1.75;0.00;;;;;;;;;;5018062;28;20045;-80
2023/08/26 09:02:13;;;;;;;0.28;0.10;;;;;;;;;;5002017;28;20042;-81
2023/08/26 09:04:39;;;;;;;0.63;0.00;;;;;;;;;;5000759;28;20103;-81
2023/08/26 09:07:06;;;;;;;0.17;0.10;;;;;;;;;;5001912;28;20045;-80
2023/08/26 09:09:32;;;;;;;0.00;0.00;;;;;;;;;;5017934;28;20040;-80
2023/08/26 09:11:58;;;;;;;0.32;0.00;;;;;;;;;;5018158;28;20481;-80
2023/08/26 09:14:25;;;;;;;1.25;0.43;;;;;;;;;;5001831;28;20045;-80
2023/08/26 09:16:51;;;;;;;0.00;0.00;;;;;;;;;;5017540;28;20041;-80
2023/08/26 09:19:17;;;;;;;0.00;0.00;;;;;;;;;;5017522;28;20115;-80
2023/08/26 09:21:44;;;;;;;0.22;0.20;;;;;;;;;;5001697;28;20088;-81
2023/08/26 09:24:13;;;;;;;0.90;0.30;;;;;;;;;;5017692;28;20478;-80
2023/08/26 09:26:58;;;;;;;0.05;0.03;;;;;;;;;;5017634;28;20132;-80
2023/08/26 09:29:24;;;;;;;0.00;0.00;;;;;;;;;;5017500;28;20037;-80
2023/08/26 09:31:55;;;;;;;0.00;0.00;;;;;;;;;;5001517;28;20048;-80
2023/08/26 09:34:32;;;;;;;0.00;0.00;;;;;;;;;;5018117;28;20085;-80
2023/08/26 09:36:58;;;;;;;0.00;0.00;;;;;;;;;;5001364;28;20138;-80
2023/08/26 09:39:25;;;;;;;0.10;0.00;;;;;;;;;;5001109;28;20047;-80
2023/08/26 09:41:51;;;;;;;0.03;0.00;;;;;;;;;;5017296;28;20108;-80
2023/08/26 09:44:17;;;;;;;0.03;0.03;;;;;;;;;;5017712;28;20132;-80
2023/08/26 09:46:44;;;;;;;2.53;0.22;;;;;;;;;;5017145;28;20496;-80
2023/08/26 09:49:14;;;;;;;0.00;0.00;;;;;;;;;;5016944;28;20144;-80
2023/08/26 09:51:46;;;;;;;0.00;0.00;;;;;;;;;;5033055;28;20040;-78
2023/08/26 09:54:13;;;;;;;0.00;0.00;;;;;;;;;;5040257;28;20044;-78
2023/08/26 09:56:40;;;;;;;0.00;0.00;;;;;;;;;;5056891;28;20132;-79
2023/08/26 09:59:06;;;;;;;0.00;0.00;;;;;;;;;;5056945;28;20041;-78
2023/08/26 10:01:34;;;;;;;6.30;1.00;;;;;;;;;;5056765;28;20036;-78
2023/08/26 10:04:08;;;;;;;0.00;0.00;;;;;;;;;;5057013;28;20040;-78
2023/08/26 10:06:37;;;;;;;0.00;0.00;;;;;;;;;;5056927;28;20044;-78
2023/08/26 10:09:23;;;;;;;0.00;0.00;;;;;;;;;;5056422;28;20480;-78
2023/08/26 10:11:51;;;;;;;0.35;0.35;;;;;;;;;;5039551;28;20055;-78
2023/08/26 10:14:18;;;;;;;0.00;0.00;;;;;;;;;;5056522;28;20042;-79
2023/08/26 10:16:46;;;;;;;0.00;0.00;;;;;;;;;;5056596;28;20105;-78
2023/08/26 10:19:12;;;;;;;0.00;0.00;;;;;;;;;;5056011;28;20056;-80
2023/08/26 10:21:39;;;;;;;0.08;0.00;;;;;;;;;;5056252;28;20383;-78
2023/08/26 10:24:06;;;;;;;0.00;0.00;;;;;;;;;;5056207;28;20103;-78
2023/08/26 10:26:32;;;;;;;0.00;0.00;;;;;;;;;;5056446;28;20092;-78
2023/08/26 10:28:59;;;;;;;0.10;0.00;;;;;;;;;;5056086;28;20055;-79
2023/08/26 10:31:35;;;;;;;0.00;0.00;;;;;;;;;;5039441;28;20037;-78
2023/08/26 10:34:01;;;;;;;0.17;0.00;;;;;;;;;;5055617;28;20488;-78
2023/08/26 10:36:28;;;;;;;0.00;0.00;;;;;;;;;;5039704;28;20090;-78
2023/08/26 10:38:56;;;;;;;0.05;0.05;;;;;;;;;;5056147;28;20044;-78
2023/08/26 10:41:22;;;;;;;0.03;0.00;;;;;;;;;;5056078;28;20399;-78
2023/08/26 10:44:01;;;;;;;0.00;0.00;;;;;;;;;;5039659;28;20380;-79
2023/08/26 10:46:33;;;;;;;0.90;0.10;;;;;;;;;;5055863;28;20044;-79
2023/08/26 10:49:00;;;;;;;0.10;0.00;;;;;;;;;;5055692;28;20094;-78
2023/08/26 10:51:26;;;;;;;0.00;0.00;;;;;;;;;;5055723;28;20043;-78
2023/08/26 10:53:52;;;;;;;0.00;0.00;;;;;;;;;;5039584;28;20052;-78
2023/08/26 10:56:19;;;;;;;0.00;0.00;;;;;;;;;;5039445;28;20059;-79
2023/08/26 10:58:49;;;;;;;1.00;0.15;;;;;;;;;;5055823;28;20536;-79
2023/08/26 11:01:16;;;;;;;0.00;0.00;;;;;;;;;;5055735;28;20052;-79
2023/08/26 11:03:46;;;;;;;0.00;0.00;;;;;;;;;;5055558;28;20068;-78
2023/08/26 11:06:22;;;;;;;0.00;0.00;;;;;;;;;;5055657;28;20040;-78
2023/08/26 11:08:54;;;;;;;0.00;0.00;;;;;;;;;;5055845;28;20043;-78
2023/08/26 11:11:21;;;;;;;0.00;0.00;;;;;;;;;;5055414;28;20132;-79
2023/08/26 11:13:47;;;;;;;0.00;0.00;;;;;;;;;;5039207;28;20051;-78
2023/08/26 11:16:14;;;;;;;0.68;0.35;;;;;;;;;;5055670;28;20049;-79
2023/08/26 11:18:40;;;;;;;0.00;0.00;;;;;;;;;;5055307;28;20118;-78
2023/08/26 11:21:07;;;;;;;0.00;0.00;;;;;;;;;;5051924;28;20057;-79
2023/08/26 11:23:33;;;;;;;0.00;0.00;;;;;;;;;;5052043;28;20093;-78
2023/08/26 11:25:59;;;;;;;0.00;0.00;;;;;;;;;;5052188;28;20045;-79
2023/08/26 11:28:27;;;;;;;0.00;0.00;;;;;;;;;;5056326;28;20045;-79
2023/08/26 11:30:53;;;;;;;0.00;0.00;;;;;;;;;;5039414;28;20485;-80
2023/08/26 11:33:21;;;;;;;0.00;0.00;;;;;;;;;;5056757;28;20044;-79
2023/08/26 11:35:47;;;;;;;0.00;0.00;;;;;;;;;;5056013;28;20366;-79
2023/08/26 11:38:14;;;;;;;0.00;0.00;;;;;;;;;;5056386;28;20072;-79
2023/08/26 11:40:41;;;;;;;0.00;0.00;;;;;;;;;;5056131;28;20049;-80
2023/08/26 11:43:12;;;;;;;0.00;0.00;;;;;;;;;;5039517;28;20075;-79
2023/08/26 11:45:38;;;;;;;0.00;0.00;;;;;;;;;;5056016;28;20037;-80
2023/08/26 11:48:05;;;;;;;0.00;0.00;;;;;;;;;;5055508;28;20147;-79
2023/08/26 11:50:32;;;;;;;0.22;0.08;;;;;;;;;;5055670;28;20037;-78
2023/08/26 11:53:01;;;;;;;0.08;0.08;;;;;;;;;;5055639;28;20041;-78
2023/08/26 11:55:28;;;;;;;0.55;0.28;;;;;;;;;;5039231;28;20465;-79
2023/08/26 11:57:54;;;;;;;0.00;0.00;;;;;;;;;;5041298;28;20049;-79
2023/08/26 12:00:23;;;;;;;0.00;0.00;;;;;;;;;;5034968;28;20041;-79
2023/08/26 12:02:49;;;;;;;0.00;0.00;;;;;;;;;;5035736;28;20045;-78
2023/08/26 12:05:16;;;;;;;0.00;0.00;;;;;;;;;;5035354;28;20041;-79
2023/08/26 12:07:45;;;;;;;0.00;0.00;;;;;;;;;;5018882;28;20049;-79
2023/08/26 12:10:12;;;;;;;0.10;0.10;;;;;;;;;;5035145;28;20132;-80
2023/08/26 12:12:39;;;;;;;0.40;0.10;;;;;;;;;;5035650;28;20124;-78
2023/08/26 12:15:06;;;;;;;0.00;0.00;;;;;;;;;;5035400;28;20481;-78
2023/08/26 12:17:32;;;;;;;0.05;0.05;;;;;;;;;;5034752;28;20481;-79
2023/08/26 12:19:58;;;;;;;0.00;0.00;;;;;;;;;;5030310;28;20480;-79
2023/08/26 12:22:24;;;;;;;0.00;0.00;;;;;;;;;;5015614;28;20042;-78
2023/08/26 12:24:50;;;;;;;0.00;0.00;;;;;;;;;;5015414;28;20112;-78
2023/08/26 12:27:16;;;;;;;0.00;0.00;;;;;;;;;;4999440;28;20060;-80
2023/08/26 12:29:42;;;;;;;0.00;0.00;;;;;;;;;;5015366;28;20049;-78
2023/08/26 12:32:08;;;;;;;0.00;0.00;;;;;;;;;;4999094;28;20042;-78
2023/08/26 12:34:35;;;;;;;0.00;0.00;;;;;;;;;;5015480;28;20418;-78
2023/08/26 12:37:01;;;;;;;0.00;0.00;;;;;;;;;;4999056;28;20100;-78
2023/08/26 12:39:27;;;;;;;0.00;0.00;;;;;;;;;;5014266;28;20041;-78
2023/08/26 12:41:54;;;;;;;0.00;0.00;;;;;;;;;;4998994;28;20117;-78
2023/08/26 12:44:22;;;;;;;0.00;0.00;;;;;;;;;;5014969;28;20045;-80
2023/08/26 12:46:48;;;;;;;0.00;0.00;;;;;;;;;;5015101;28;20072;-78
2023/08/26 12:49:15;;;;;;;0.00;0.00;;;;;;;;;;4998355;28;20049;-79
2023/08/26 12:51:41;;;;;;;0.00;0.00;;;;;;;;;;5015142;28;20052;-80
2023/08/26 12:54:07;;;;;;;0.03;0.03;;;;;;;;;;5015361;28;20418;-78
2023/08/26 12:56:33;;;;;;;0.00;0.00;;;;;;;;;;5014896;28;20049;-78
2023/08/26 12:58:59;;;;;;;0.00;0.00;;;;;;;;;;5015082;28;20077;-79
2023/08/26 13:01:25;;;;;;;0.00;0.00;;;;;;;;;;4998540;28;20053;-78
2023/08/26 13:03:52;;;;;;;0.00;0.00;;;;;;;;;;5014815;28;20080;-79
2023/08/26 13:06:18;;;;;;;0.00;0.00;;;;;;;;;;4998284;28;20049;-80
2023/08/26 13:08:50;;;;;;;0.00;0.00;;;;;;;;;;4998649;28;20145;-79
2023/08/26 13:11:16;;;;;;;0.00;0.00;;;;;;;;;;5014512;28;20041;-78
2023/08/26 13:13:42;;;;;;;0.00;0.00;;;;;;;;;;5014964;28;20117;-78
2023/08/26 13:16:09;;;;;;;0.00;0.00;;;;;;;;;;4998471;28;20045;-78
2023/08/26 13:18:35;;;;;;;0.00;0.00;;;;;;;;;;5014061;28;20046;-79
2023/08/26 13:21:01;;;;;;;0.00;0.00;;;;;;;;;;5014333;28;20388;-78
2023/08/26 13:23:27;;;;;;;0.00;0.00;;;;;;;;;;5021224;28;20073;-79
2023/08/26 13:25:53;;;;;;;0.05;0.05;;;;;;;;;;5037491;28;20048;-79
2023/08/26 13:28:19;;;;;;;0.00;0.00;;;;;;;;;;5037458;28;20037;-79
2023/08/26 13:30:46;;;;;;;0.00;0.00;;;;;;;;;;5037231;28;20075;-79
2023/08/26 13:33:12;;;;;;;0.00;0.00;;;;;;;;;;5020867;28;20049;-80
2023/08/26 13:35:38;;;;;;;0.00;0.00;;;;;;;;;;5037377;28;20041;-79
2023/08/26 13:38:04;;;;;;;0.00;0.00;;;;;;;;;;5021292;28;20171;-79
2023/08/26 13:40:31;;;;;;;0.00;0.00;;;;;;;;;;5037259;28;20126;-78
2023/08/26 13:42:57;;;;;;;0.00;0.00;;;;;;;;;;5037334;28;20049;-80
2023/08/26 13:45:23;;;;;;;0.00;0.00;;;;;;;;;;5020738;28;20048;-78
2023/08/26 13:47:49;;;;;;;0.00;0.00;;;;;;;;;;5036572;28;20048;-79
2023/08/26 13:50:15;;;;;;;0.10;0.00;;;;;;;;;;5036438;28;20041;-79
2023/08/26 13:52:42;;;;;;;0.00;0.00;;;;;;;;;;5037328;28;20354;-79
2023/08/26 13:55:08;;;;;;;0.00;0.00;;;;;;;;;;5020461;28;20051;-79
2023/08/26 13:57:35;;;;;;;0.00;0.00;;;;;;;;;;5036993;28;20049;-79
2023/08/26 14:00:01;;;;;;;0.10;0.00;;;;;;;;;;5037008;28;20049;-78
2023/08/26 14:02:28;;;;;;;0.00;0.00;;;;;;;;;;5036692;28;20134;-79
2023/08/26 14:04:54;;;;;;;0.00;0.00;;;;;;;;;;5036677;28;20489;-79
2023/08/26 14:07:20;;;;;;;0.00;0.00;;;;;;;;;;5020226;28;20507;-80
2023/08/26 14:09:46;;;;;;;0.20;0.00;;;;;;;;;;5020336;28;20064;-79
2023/08/26 14:12:12;;;;;;;0.00;0.00;;;;;;;;;;5036737;28;20098;-79
2023/08/26 14:14:39;;;;;;;0.00;0.00;;;;;;;;;;5036843;28;20045;-79
2023/08/26 14:17:05;;;;;;;0.15;0.15;;;;;;;;;;5003932;28;20465;-80
2023/08/26 14:19:31;;;;;;;0.00;0.00;;;;;;;;;;5036059;28;20072;-80
2023/08/26 14:21:58;;;;;;;0.57;0.10;;;;;;;;;;5036626;28;20131;-79
2023/08/26 14:24:24;;;;;;;0.00;0.00;;;;;;;;;;5036254;28;20467;-80
2023/08/26 14:26:50;;;;;;;0.00;0.00;;;;;;;;;;5036516;28;20044;-79
2023/08/26 14:29:16;;;;;;;0.00;0.00;;;;;;;;;;5036363;28;20136;-79
2023/08/26 14:31:42;;;;;;;0.00;0.00;;;;;;;;;;5035946;28;20041;-79
2023/08/26 14:34:09;;;;;;;0.00;0.00;;;;;;;;;;5020402;28;20440;-79
2023/08/26 14:36:36;;;;;;;0.00;0.00;;;;;;;;;;5036304;28;20048;-78
2023/08/26 14:39:02;;;;;;;0.00;0.00;;;;;;;;;;5036281;28;20041;-80
2023/08/26 14:41:28;;;;;;;0.00;0.00;;;;;;;;;;5036239;28;20056;-79